Time;durP1;ratioP1;P1;durP2;ratioP2;P2;SDS_P1;SDS_P2;PMS_P1;PMS_P2;Temp;Humidity;BMP_temperature;BMP_pressure;BME280_temperature;BME280_humidity;BME280_pressure;Samples;Min_cycle;Max_cycle;Signal;HPM_P1;HPM_P2
2022/10/21 00:00:56;;;;;;;29.20;18.05;;;;;;;;;;5015947;28;20292;-66
2022/10/21 00:03:21;;;;;;;27.38;17.27;;;;;;;;;;5014576;28;20219;-65
2022/10/21 00:05:46;;;;;;;28.92;16.77;;;;;;;;;;5015688;28;20264;-65
2022/10/21 00:08:12;;;;;;;25.70;17.67;;;;;;;;;;5015294;28;20572;-65
2022/10/21 00:10:37;;;;;;;30.30;17.83;;;;;;;;;;5014802;28;20259;-65
2022/10/21 00:13:02;;;;;;;20.98;14.90;;;;;;;;;;5015169;28;20212;-65
2022/10/21 00:15:28;;;;;;;18.90;13.60;;;;;;;;;;5015786;28;20219;-65
2022/10/21 00:17:53;;;;;;;24.95;15.85;;;;;;;;;;5014745;28;20315;-65
2022/10/21 00:20:18;;;;;;;23.48;15.07;;;;;;;;;;5015144;28;20212;-65
2022/10/21 00:22:43;;;;;;;22.75;15.75;;;;;;;;;;5013468;28;20283;-65
2022/10/21 00:25:09;;;;;;;23.73;15.65;;;;;;;;;;5015045;28;20215;-65
2022/10/21 00:27:34;;;;;;;29.58;16.48;;;;;;;;;;5015065;28;20581;-65
2022/10/21 00:29:59;;;;;;;28.08;16.40;;;;;;;;;;5013540;28;20224;-64
2022/10/21 00:32:25;;;;;;;20.83;14.40;;;;;;;;;;5014782;28;20209;-64
2022/10/21 00:34:50;;;;;;;26.20;16.50;;;;;;;;;;5015542;28;20217;-65
2022/10/21 00:37:16;;;;;;;24.42;16.10;;;;;;;;;;5014081;28;20213;-66
2022/10/21 00:39:41;;;;;;;37.45;19.98;;;;;;;;;;5014794;28;20204;-66
2022/10/21 00:42:10;;;;;;;24.70;16.75;;;;;;;;;;5005549;28;20762;-66
2022/10/21 00:44:35;;;;;;;23.70;15.23;;;;;;;;;;4986661;28;20275;-66
2022/10/21 00:47:02;;;;;;;23.10;15.50;;;;;;;;;;5003338;28;20807;-66
2022/10/21 00:49:31;;;;;;;31.35;18.80;;;;;;;;;;5004652;28;20640;-70
2022/10/21 00:51:58;;;;;;;28.40;17.80;;;;;;;;;;5004298;28;20286;-65
2022/10/21 00:54:23;;;;;;;33.63;19.42;;;;;;;;;;5002638;28;20208;-64
2022/10/21 00:56:48;;;;;;;23.52;16.15;;;;;;;;;;5002585;28;20212;-64
2022/10/21 00:59:13;;;;;;;26.92;17.58;;;;;;;;;;4980990;28;20789;-65
2022/10/21 01:01:39;;;;;;;26.60;18.50;;;;;;;;;;4995555;28;20251;-64
2022/10/21 01:04:04;;;;;;;32.13;18.25;;;;;;;;;;4998086;28;20298;-64
2022/10/21 01:06:30;;;;;;;30.02;18.52;;;;;;;;;;5004266;28;20295;-64
2022/10/21 01:08:55;;;;;;;34.40;19.08;;;;;;;;;;5004395;28;20307;-64
2022/10/21 01:11:20;;;;;;;28.63;18.08;;;;;;;;;;5004088;28;20212;-64
2022/10/21 01:13:50;;;;;;;26.08;16.05;;;;;;;;;;5002125;28;20208;-64
2022/10/21 01:16:19;;;;;;;29.40;16.80;;;;;;;;;;5002003;28;20571;-64
2022/10/21 01:18:56;;;;;;;24.85;15.57;;;;;;;;;;5002797;28;20271;-64
2022/10/21 01:21:27;;;;;;;28.17;16.52;;;;;;;;;;4996553;28;20216;-64
2022/10/21 01:24:07;;;;;;;29.52;17.33;;;;;;;;;;4994766;28;20238;-64
2022/10/21 01:26:51;;;;;;;30.67;17.25;;;;;;;;;;4975729;28;20674;-64
2022/10/21 01:29:16;;;;;;;23.92;16.15;;;;;;;;;;4984389;28;20307;-64
2022/10/21 01:31:44;;;;;;;28.67;15.52;;;;;;;;;;4984756;28;20736;-64
2022/10/21 01:34:19;;;;;;;24.05;16.73;;;;;;;;;;4982247;28;20217;-64
2022/10/21 01:36:48;;;;;;;25.92;14.90;;;;;;;;;;4984619;28;20212;-64
2022/10/21 01:39:20;;;;;;;25.77;14.80;;;;;;;;;;4983646;28;20280;-64
2022/10/21 01:41:47;;;;;;;28.27;15.57;;;;;;;;;;4981236;28;20264;-64
2022/10/21 01:44:22;;;;;;;22.13;13.80;;;;;;;;;;4974937;28;20244;-64
2022/10/21 01:46:49;;;;;;;24.40;14.75;;;;;;;;;;4976882;28;20208;-64
2022/10/21 01:49:17;;;;;;;24.27;14.48;;;;;;;;;;4975436;28;20708;-64
2022/10/21 01:51:42;;;;;;;27.60;16.30;;;;;;;;;;4984150;28;20213;-64
2022/10/21 01:54:09;;;;;;;27.48;15.63;;;;;;;;;;4982270;28;20278;-64
2022/10/21 01:56:34;;;;;;;24.60;14.27;;;;;;;;;;4982371;28;20263;-64
2022/10/21 01:58:59;;;;;;;26.40;14.00;;;;;;;;;;4983760;28;20815;-64
2022/10/21 02:01:24;;;;;;;25.90;15.05;;;;;;;;;;4982322;28;20217;-64
2022/10/21 02:03:52;;;;;;;21.70;14.40;;;;;;;;;;4982429;28;20240;-64
2022/10/21 02:06:17;;;;;;;21.85;13.82;;;;;;;;;;4970685;28;20206;-64
2022/10/21 02:08:42;;;;;;;22.17;14.05;;;;;;;;;;4975113;28;20280;-64
2022/10/21 02:11:08;;;;;;;24.05;14.40;;;;;;;;;;4975743;28;20212;-64
2022/10/21 02:13:36;;;;;;;28.02;14.57;;;;;;;;;;4981154;28;20308;-64
2022/10/21 02:16:02;;;;;;;32.75;16.23;;;;;;;;;;4981013;28;20233;-63
2022/10/21 02:18:27;;;;;;;28.45;15.65;;;;;;;;;;4970143;28;20225;-64
2022/10/21 02:20:54;;;;;;;24.45;13.70;;;;;;;;;;4983922;28;20576;-64
2022/10/21 02:23:20;;;;;;;25.15;14.07;;;;;;;;;;4983022;28;20225;-64
2022/10/21 02:25:45;;;;;;;21.45;13.52;;;;;;;;;;4982151;28;20266;-64
2022/10/21 02:28:11;;;;;;;20.30;14.18;;;;;;;;;;4977743;28;20217;-64
2022/10/21 02:30:38;;;;;;;25.35;15.43;;;;;;;;;;4974800;28;20208;-64
2022/10/21 02:33:10;;;;;;;26.35;15.73;;;;;;;;;;4975177;28;20255;-64
2022/10/21 02:35:37;;;;;;;28.38;14.90;;;;;;;;;;4978669;28;20669;-64
2022/10/21 02:38:11;;;;;;;25.02;16.10;;;;;;;;;;4980904;28;20255;-64
2022/10/21 02:40:38;;;;;;;18.15;14.43;;;;;;;;;;4981916;28;20271;-63
2022/10/21 02:43:04;;;;;;;25.45;16.00;;;;;;;;;;4981441;28;20209;-63
2022/10/21 02:45:29;;;;;;;23.58;15.00;;;;;;;;;;4982926;28;20220;-64
2022/10/21 02:47:55;;;;;;;30.23;15.90;;;;;;;;;;4981833;28;20205;-63
2022/10/21 02:50:20;;;;;;;21.77;14.10;;;;;;;;;;4986370;28;20870;-63
2022/10/21 02:52:45;;;;;;;21.10;14.60;;;;;;;;;;4990610;28;20213;-63
2022/10/21 02:55:11;;;;;;;21.67;14.82;;;;;;;;;;4994282;28;20205;-64
2022/10/21 02:57:36;;;;;;;23.25;14.80;;;;;;;;;;5011924;28;20582;-64
2022/10/21 03:00:02;;;;;;;23.45;14.93;;;;;;;;;;5012244;28;20208;-63
2022/10/21 03:02:27;;;;;;;24.27;15.18;;;;;;;;;;5012691;28;20570;-63
2022/10/21 03:04:52;;;;;;;23.63;15.30;;;;;;;;;;5011890;28;20220;-63
2022/10/21 03:07:17;;;;;;;27.02;15.20;;;;;;;;;;5012402;28;20208;-63
2022/10/21 03:09:43;;;;;;;23.48;14.82;;;;;;;;;;5012645;28;20227;-63
2022/10/21 03:12:08;;;;;;;22.52;14.45;;;;;;;;;;5011486;28;20212;-63
2022/10/21 03:14:33;;;;;;;24.02;14.60;;;;;;;;;;5000830;28;20220;-64
2022/10/21 03:16:58;;;;;;;24.88;15.00;;;;;;;;;;4998884;28;20680;-64
2022/10/21 03:19:24;;;;;;;19.20;14.18;;;;;;;;;;4997879;28;20242;-64
2022/10/21 03:21:49;;;;;;;21.50;15.13;;;;;;;;;;5003027;28;20245;-64
2022/10/21 03:24:14;;;;;;;25.52;15.68;;;;;;;;;;5006147;28;20208;-64
2022/10/21 03:26:39;;;;;;;24.05;16.27;;;;;;;;;;5005947;28;20242;-64
2022/10/21 03:29:05;;;;;;;24.70;15.45;;;;;;;;;;5005923;28;20216;-64
2022/10/21 03:31:30;;;;;;;25.65;16.92;;;;;;;;;;5006442;28;20260;-64
2022/10/21 03:33:55;;;;;;;26.38;16.55;;;;;;;;;;5005805;28;20706;-64
2022/10/21 03:36:20;;;;;;;26.40;17.55;;;;;;;;;;5004313;28;20216;-64
2022/10/21 03:38:46;;;;;;;32.67;19.45;;;;;;;;;;4998869;28;20864;-64
2022/10/21 03:41:11;;;;;;;27.23;16.05;;;;;;;;;;4996878;28;20278;-64
2022/10/21 03:43:36;;;;;;;27.67;17.30;;;;;;;;;;4999284;28;20766;-64
2022/10/21 03:46:01;;;;;;;26.63;17.23;;;;;;;;;;5005976;28;20767;-64
2022/10/21 03:48:27;;;;;;;27.70;17.13;;;;;;;;;;5005505;28;20219;-64
2022/10/21 03:50:53;;;;;;;24.55;16.23;;;;;;;;;;5005846;28;20208;-64
2022/10/21 03:53:18;;;;;;;26.23;16.77;;;;;;;;;;5005254;28;20793;-64
2022/10/21 03:55:44;;;;;;;25.13;15.95;;;;;;;;;;5005213;28;20245;-64
2022/10/21 03:58:09;;;;;;;25.30;16.48;;;;;;;;;;5005684;28;20301;-64
2022/10/21 04:00:34;;;;;;;22.02;14.77;;;;;;;;;;4999234;28;20208;-64
2022/10/21 04:03:00;;;;;;;28.98;15.77;;;;;;;;;;4997397;28;20290;-64
2022/10/21 04:05:25;;;;;;;27.42;15.23;;;;;;;;;;4997389;28;20227;-64
2022/10/21 04:07:50;;;;;;;20.90;14.02;;;;;;;;;;5003913;28;20714;-63
2022/10/21 04:10:15;;;;;;;26.35;16.45;;;;;;;;;;5005274;28;20648;-63
2022/10/21 04:12:41;;;;;;;29.30;16.42;;;;;;;;;;5005768;28;20214;-64
2022/10/21 04:15:06;;;;;;;22.98;15.10;;;;;;;;;;5004346;28;20224;-63
2022/10/21 04:17:32;;;;;;;26.17;15.70;;;;;;;;;;5001578;28;20259;-64
2022/10/21 04:19:57;;;;;;;21.73;15.18;;;;;;;;;;5005513;28;20628;-63
2022/10/21 04:22:22;;;;;;;23.30;15.82;;;;;;;;;;5000354;28;20222;-63
2022/10/21 04:24:47;;;;;;;22.95;14.13;;;;;;;;;;4996517;28;21249;-63
2022/10/21 04:27:13;;;;;;;23.98;14.57;;;;;;;;;;4997285;28;20230;-63
2022/10/21 04:29:38;;;;;;;22.55;15.40;;;;;;;;;;5000458;28;20620;-64
2022/10/21 04:32:03;;;;;;;18.77;13.57;;;;;;;;;;5004301;28;20319;-64
2022/10/21 04:34:28;;;;;;;25.58;14.50;;;;;;;;;;5005401;28;20211;-64
2022/10/21 04:36:54;;;;;;;22.65;15.40;;;;;;;;;;5004831;28;20263;-63
2022/10/21 04:39:19;;;;;;;29.48;17.10;;;;;;;;;;5004280;28;20228;-63
2022/10/21 04:41:44;;;;;;;25.00;16.30;;;;;;;;;;5005103;28;20291;-64
2022/10/21 04:44:09;;;;;;;29.30;15.65;;;;;;;;;;5002727;28;20302;-63
2022/10/21 04:46:35;;;;;;;24.27;15.68;;;;;;;;;;4997320;28;20216;-64
2022/10/21 04:49:00;;;;;;;23.08;15.85;;;;;;;;;;4997078;28;20209;-64
2022/10/21 04:51:25;;;;;;;29.98;16.15;;;;;;;;;;4997118;28;20212;-63
2022/10/21 04:53:51;;;;;;;21.95;14.27;;;;;;;;;;5004938;28;20215;-64
2022/10/21 04:56:16;;;;;;;24.08;14.95;;;;;;;;;;5004281;28;20222;-64
2022/10/21 04:58:41;;;;;;;23.77;14.85;;;;;;;;;;5003949;28;20624;-64
2022/10/21 05:01:06;;;;;;;21.20;14.88;;;;;;;;;;5004255;28;20223;-64
2022/10/21 05:03:32;;;;;;;20.00;13.88;;;;;;;;;;5004675;28;20204;-63
2022/10/21 05:05:57;;;;;;;18.30;13.70;;;;;;;;;;5003965;28;20239;-64
2022/10/21 05:08:22;;;;;;;20.92;14.40;;;;;;;;;;4998593;28;20759;-64
2022/10/21 05:10:48;;;;;;;20.85;14.05;;;;;;;;;;4996172;28;20216;-64
2022/10/21 05:13:13;;;;;;;20.17;13.75;;;;;;;;;;4995703;28;21132;-64
2022/10/21 05:15:38;;;;;;;22.30;13.82;;;;;;;;;;5002589;28;20570;-64
2022/10/21 05:18:04;;;;;;;24.70;14.30;;;;;;;;;;5003852;28;20236;-63
2022/10/21 05:20:29;;;;;;;23.48;14.73;;;;;;;;;;5003863;28;20208;-63
2022/10/21 05:22:54;;;;;;;23.48;14.68;;;;;;;;;;5004071;28;20261;-63
2022/10/21 05:25:20;;;;;;;22.35;14.10;;;;;;;;;;5003297;28;20224;-64
2022/10/21 05:27:45;;;;;;;20.83;14.32;;;;;;;;;;5004280;28;20213;-64
2022/10/21 05:30:11;;;;;;;22.58;14.02;;;;;;;;;;5000165;28;20761;-64
2022/10/21 05:32:36;;;;;;;21.27;13.48;;;;;;;;;;4994400;28;20220;-64
2022/10/21 05:35:02;;;;;;;21.83;14.93;;;;;;;;;;4995926;28;20279;-64
2022/10/21 05:37:27;;;;;;;21.60;13.65;;;;;;;;;;4999251;28;20263;-64
2022/10/21 05:39:52;;;;;;;23.00;14.60;;;;;;;;;;5003181;28;20215;-64
2022/10/21 05:42:17;;;;;;;19.13;13.70;;;;;;;;;;5003502;28;20212;-64
2022/10/21 05:44:43;;;;;;;24.05;13.63;;;;;;;;;;5004190;28;20212;-64
2022/10/21 05:47:08;;;;;;;23.77;14.85;;;;;;;;;;5002545;28;20679;-64
2022/10/21 05:49:33;;;;;;;22.55;14.45;;;;;;;;;;5003817;28;20311;-64
2022/10/21 05:51:59;;;;;;;18.90;12.88;;;;;;;;;;5006977;28;20235;-64
2022/10/21 05:54:24;;;;;;;21.27;14.55;;;;;;;;;;5011321;28;20295;-65
2022/10/21 05:56:49;;;;;;;21.17;14.97;;;;;;;;;;5013665;28;20454;-64
2022/10/21 05:59:14;;;;;;;22.63;14.07;;;;;;;;;;5012999;28;20221;-63
2022/10/21 06:01:40;;;;;;;28.33;16.17;;;;;;;;;;5016015;28;20243;-63
2022/10/21 06:04:05;;;;;;;24.87;16.87;;;;;;;;;;5011685;28;20470;-64
2022/10/21 06:06:31;;;;;;;21.63;13.85;;;;;;;;;;5013161;28;20204;-63
2022/10/21 06:08:56;;;;;;;23.73;14.23;;;;;;;;;;5012280;28;20662;-64
2022/10/21 06:11:21;;;;;;;23.83;14.60;;;;;;;;;;5012521;28;20217;-64
2022/10/21 06:13:46;;;;;;;26.23;15.27;;;;;;;;;;5015043;28;20204;-64
2022/10/21 06:16:12;;;;;;;22.70;14.98;;;;;;;;;;5013187;28;20706;-63
2022/10/21 06:18:37;;;;;;;24.15;15.57;;;;;;;;;;5017751;28;20656;-63
2022/10/21 06:21:03;;;;;;;30.50;16.85;;;;;;;;;;5017204;28;20211;-64
2022/10/21 06:23:28;;;;;;;22.73;14.27;;;;;;;;;;5016147;28;20208;-63
2022/10/21 06:25:57;;;;;;;26.80;16.25;;;;;;;;;;5016896;28;20224;-63
2022/10/21 06:28:22;;;;;;;24.40;13.88;;;;;;;;;;5032290;28;20208;-63
2022/10/21 06:30:48;;;;;;;27.07;18.23;;;;;;;;;;5031021;28;20429;-65
2022/10/21 06:33:13;;;;;;;21.25;14.77;;;;;;;;;;5032093;28;20224;-64
2022/10/21 06:35:38;;;;;;;23.90;15.15;;;;;;;;;;5031622;28;20278;-64
2022/10/21 06:38:03;;;;;;;21.55;13.98;;;;;;;;;;5032315;28;20224;-64
2022/10/21 06:40:29;;;;;;;20.73;14.10;;;;;;;;;;5014528;28;20218;-64
2022/10/21 06:42:54;;;;;;;26.67;14.80;;;;;;;;;;5012151;28;20212;-64
2022/10/21 06:45:19;;;;;;;23.23;15.00;;;;;;;;;;5012535;28;20674;-65
2022/10/21 06:47:44;;;;;;;27.90;15.27;;;;;;;;;;5012210;28;20221;-64
2022/10/21 06:50:12;;;;;;;20.63;13.50;;;;;;;;;;5011424;28;20212;-64
2022/10/21 06:52:37;;;;;;;23.75;15.55;;;;;;;;;;5012686;28;20260;-64
2022/10/21 06:55:02;;;;;;;19.73;14.35;;;;;;;;;;5012152;28;20285;-64
2022/10/21 06:57:28;;;;;;;23.25;14.63;;;;;;;;;;5011763;28;20290;-65
2022/10/21 06:59:53;;;;;;;25.10;15.85;;;;;;;;;;5007909;28;20224;-63
2022/10/21 07:02:18;;;;;;;23.20;14.38;;;;;;;;;;5017728;28;20212;-64
2022/10/21 07:04:44;;;;;;;24.42;15.23;;;;;;;;;;5016838;28;20231;-64
2022/10/21 07:07:11;;;;;;;23.85;14.00;;;;;;;;;;5011290;28;20238;-65
2022/10/21 07:09:36;;;;;;;24.40;14.30;;;;;;;;;;5007195;28;20216;-64
2022/10/21 07:12:01;;;;;;;26.50;13.93;;;;;;;;;;5004769;28;20660;-65
2022/10/21 07:14:26;;;;;;;20.13;14.02;;;;;;;;;;5007403;28;20231;-64
2022/10/21 07:16:52;;;;;;;23.50;14.60;;;;;;;;;;5006913;28;20214;-64
2022/10/21 07:19:18;;;;;;;25.40;14.75;;;;;;;;;;5003991;28;20230;-64
2022/10/21 07:21:43;;;;;;;25.17;16.25;;;;;;;;;;5006991;28;20209;-64
2022/10/21 07:24:08;;;;;;;27.10;14.30;;;;;;;;;;5007123;28;20586;-65
2022/10/21 07:26:34;;;;;;;23.25;14.00;;;;;;;;;;5006614;28;20219;-64
2022/10/21 07:28:59;;;;;;;23.48;13.95;;;;;;;;;;5010857;28;20418;-64
2022/10/21 07:31:25;;;;;;;22.73;14.63;;;;;;;;;;5012118;28;20696;-64
2022/10/21 07:33:50;;;;;;;25.17;14.18;;;;;;;;;;5011016;28;20782;-65
2022/10/21 07:36:17;;;;;;;25.55;14.85;;;;;;;;;;5009271;28;20200;-63
2022/10/21 07:38:45;;;;;;;28.98;15.48;;;;;;;;;;5007904;28;20258;-64
2022/10/21 07:41:15;;;;;;;26.77;15.80;;;;;;;;;;5003849;28;20444;-63
2022/10/21 07:43:40;;;;;;;23.67;17.23;;;;;;;;;;5006415;28;20423;-63
2022/10/21 07:46:06;;;;;;;22.55;15.52;;;;;;;;;;5005679;28;20684;-62
2022/10/21 07:48:31;;;;;;;24.08;14.88;;;;;;;;;;5007364;28;20270;-63
2022/10/21 07:51:01;;;;;;;25.33;17.13;;;;;;;;;;5007143;28;20426;-64
2022/10/21 07:53:26;;;;;;;22.60;15.50;;;;;;;;;;5005739;28;20513;-64
2022/10/21 07:55:59;;;;;;;21.60;13.73;;;;;;;;;;5006129;28;20240;-63
2022/10/21 07:58:25;;;;;;;22.80;13.85;;;;;;;;;;5011253;28;20228;-64
2022/10/21 08:00:50;;;;;;;18.75;13.82;;;;;;;;;;5009278;28;20204;-64
2022/10/21 08:03:15;;;;;;;21.65;13.93;;;;;;;;;;5009552;28;20208;-64
2022/10/21 08:05:40;;;;;;;25.33;14.55;;;;;;;;;;5009312;28;20233;-64
2022/10/21 08:08:06;;;;;;;22.63;14.77;;;;;;;;;;5008794;28;20570;-64
2022/10/21 08:10:31;;;;;;;19.60;13.75;;;;;;;;;;5010493;28;20720;-64
2022/10/21 08:12:56;;;;;;;21.38;14.07;;;;;;;;;;5010784;28;20220;-64
2022/10/21 08:15:21;;;;;;;23.80;15.48;;;;;;;;;;5009643;28;20208;-64
2022/10/21 08:17:47;;;;;;;24.20;14.90;;;;;;;;;;5013704;28;20232;-63
2022/10/21 08:20:12;;;;;;;23.98;14.60;;;;;;;;;;5011435;28;20680;-64
2022/10/21 08:22:37;;;;;;;25.60;15.35;;;;;;;;;;5008222;28;20346;-64
2022/10/21 08:25:03;;;;;;;22.92;15.15;;;;;;;;;;5009898;28;20216;-64
2022/10/21 08:27:28;;;;;;;23.05;14.98;;;;;;;;;;5009503;28;20749;-64
2022/10/21 08:29:54;;;;;;;24.70;16.20;;;;;;;;;;5009395;28;20231;-64
2022/10/21 08:32:19;;;;;;;26.35;16.73;;;;;;;;;;5009461;28;20298;-64
2022/10/21 08:34:44;;;;;;;18.92;14.35;;;;;;;;;;5028093;28;20678;-64
2022/10/21 08:37:10;;;;;;;20.40;12.18;;;;;;;;;;5028568;28;20222;-63
2022/10/21 08:39:35;;;;;;;20.42;12.43;;;;;;;;;;5018848;28;20221;-64
2022/10/21 08:42:03;;;;;;;19.10;12.18;;;;;;;;;;5009266;28;20213;-64
2022/10/21 08:44:31;;;;;;;18.88;11.68;;;;;;;;;;5008052;28;20692;-64
2022/10/21 08:47:01;;;;;;;22.40;12.27;;;;;;;;;;5009422;28;20279;-64
2022/10/21 08:49:27;;;;;;;18.13;12.00;;;;;;;;;;5006812;28;20339;-63
2022/10/21 08:51:57;;;;;;;18.63;11.15;;;;;;;;;;5007432;28;20212;-63
2022/10/21 08:54:25;;;;;;;19.00;11.45;;;;;;;;;;5007709;28;20216;-63
2022/10/21 08:56:50;;;;;;;16.00;11.13;;;;;;;;;;5006856;28;20201;-63
2022/10/21 08:59:20;;;;;;;14.88;11.25;;;;;;;;;;5007323;28;20235;-64
2022/10/21 09:01:50;;;;;;;17.08;10.73;;;;;;;;;;5009485;28;20228;-63
2022/10/21 09:04:16;;;;;;;18.35;11.10;;;;;;;;;;5006540;28;20236;-63
2022/10/21 09:06:43;;;;;;;14.13;9.65;;;;;;;;;;5009091;28;20295;-64
2022/10/21 09:09:12;;;;;;;19.33;9.60;;;;;;;;;;5009151;28;20219;-63
2022/10/21 09:11:56;;;;;;;15.98;10.00;;;;;;;;;;5023194;28;20233;-63
2022/10/21 09:14:29;;;;;;;18.80;9.45;;;;;;;;;;5008642;28;20239;-63
2022/10/21 09:17:00;;;;;;;13.73;9.77;;;;;;;;;;5009378;28;20209;-63
2022/10/21 09:19:30;;;;;;;14.20;9.30;;;;;;;;;;5006193;28;20258;-63
2022/10/21 09:22:06;;;;;;;12.85;9.80;;;;;;;;;;5008580;28;20715;-63
2022/10/21 09:24:34;;;;;;;16.08;9.95;;;;;;;;;;5008126;28;20235;-63
2022/10/21 09:26:59;;;;;;;15.95;10.20;;;;;;;;;;5008127;28;20205;-64
2022/10/21 09:29:24;;;;;;;15.73;9.93;;;;;;;;;;5008834;28;20201;-63
2022/10/21 09:31:50;;;;;;;20.92;12.20;;;;;;;;;;5010735;28;20488;-65
2022/10/21 09:34:20;;;;;;;17.70;10.57;;;;;;;;;;5013748;28;20209;-64
2022/10/21 09:36:47;;;;;;;17.00;10.68;;;;;;;;;;5015743;28;20224;-64
2022/10/21 09:39:15;;;;;;;15.93;9.93;;;;;;;;;;5020309;28;20277;-63
2022/10/21 09:41:43;;;;;;;17.27;10.25;;;;;;;;;;5032445;28;20220;-65
2022/10/21 09:44:26;;;;;;;16.77;9.23;;;;;;;;;;5033234;28;20570;-65
2022/10/21 09:46:52;;;;;;;11.73;8.63;;;;;;;;;;5019230;28;20207;-65
2022/10/21 09:49:26;;;;;;;14.10;9.23;;;;;;;;;;5015545;28;20219;-65
2022/10/21 09:51:52;;;;;;;13.80;9.45;;;;;;;;;;5015656;28;20224;-65
2022/10/21 09:54:19;;;;;;;18.58;10.20;;;;;;;;;;5016942;28;20695;-64
2022/10/21 09:56:45;;;;;;;18.85;10.13;;;;;;;;;;5018199;28;20671;-64
2022/10/21 09:59:12;;;;;;;19.70;10.05;;;;;;;;;;5017637;28;20304;-65
2022/10/21 10:01:38;;;;;;;14.65;9.90;;;;;;;;;;5017531;28;20570;-64
2022/10/21 10:04:10;;;;;;;15.48;8.90;;;;;;;;;;5012450;28;20220;-64
2022/10/21 10:06:36;;;;;;;14.50;9.25;;;;;;;;;;5011825;28;20260;-63
2022/10/21 10:09:13;;;;;;;19.75;8.80;;;;;;;;;;5018039;28;20699;-63
2022/10/21 10:11:53;;;;;;;12.82;8.52;;;;;;;;;;5013334;28;20694;-64
2022/10/21 10:14:29;;;;;;;11.88;8.30;;;;;;;;;;5015490;28;20196;-64
2022/10/21 10:16:55;;;;;;;13.90;7.80;;;;;;;;;;5018360;28;20624;-64
2022/10/21 10:19:21;;;;;;;12.05;6.53;;;;;;;;;;5014278;28;20228;-64
2022/10/21 10:21:50;;;;;;;9.00;5.75;;;;;;;;;;5012276;28;20220;-64
2022/10/21 10:24:16;;;;;;;14.38;6.15;;;;;;;;;;5011859;28;20223;-64
2022/10/21 10:26:41;;;;;;;11.80;5.78;;;;;;;;;;5013320;28;20236;-64
2022/10/21 10:29:13;;;;;;;11.05;5.38;;;;;;;;;;5012162;28;20275;-64
2022/10/21 10:31:39;;;;;;;11.55;5.78;;;;;;;;;;5013143;28;20219;-64
2022/10/21 10:34:05;;;;;;;11.38;5.90;;;;;;;;;;5011497;28;20216;-64
2022/10/21 10:36:35;;;;;;;12.32;6.03;;;;;;;;;;5012236;28;20609;-64
2022/10/21 10:39:00;;;;;;;10.75;5.78;;;;;;;;;;5011577;28;20220;-64
2022/10/21 10:41:30;;;;;;;12.60;5.85;;;;;;;;;;5011471;28;20698;-64
2022/10/21 10:43:56;;;;;;;8.13;5.57;;;;;;;;;;5010822;28;20248;-64
2022/10/21 10:46:24;;;;;;;12.73;6.20;;;;;;;;;;5012531;28;20219;-64
2022/10/21 10:48:49;;;;;;;11.80;6.00;;;;;;;;;;5010936;28;20201;-64
2022/10/21 10:51:23;;;;;;;10.00;5.85;;;;;;;;;;5011185;28;20695;-64
2022/10/21 10:54:00;;;;;;;7.85;5.43;;;;;;;;;;5012811;28;20207;-64
2022/10/21 10:56:26;;;;;;;11.95;5.82;;;;;;;;;;5011455;28;20216;-64
2022/10/21 10:59:03;;;;;;;12.90;6.30;;;;;;;;;;5011603;28;20243;-64
2022/10/21 11:01:29;;;;;;;10.98;6.13;;;;;;;;;;5011085;28;20215;-64
2022/10/21 11:04:07;;;;;;;9.82;5.60;;;;;;;;;;5010401;28;20215;-64
2022/10/21 11:06:34;;;;;;;10.20;4.97;;;;;;;;;;5012292;28;20690;-64
2022/10/21 11:08:59;;;;;;;8.43;5.32;;;;;;;;;;5011041;28;20230;-63
2022/10/21 11:11:25;;;;;;;7.85;4.78;;;;;;;;;;5004031;28;20728;-64
2022/10/21 11:13:51;;;;;;;11.48;4.70;;;;;;;;;;5007147;28;20216;-61
2022/10/21 11:16:19;;;;;;;8.35;4.07;;;;;;;;;;5005054;28;20205;-63
2022/10/21 11:18:56;;;;;;;8.68;4.32;;;;;;;;;;5006883;28;20224;-64
2022/10/21 11:21:40;;;;;;;13.07;4.80;;;;;;;;;;5005620;28;20408;-63
2022/10/21 11:24:16;;;;;;;9.57;4.88;;;;;;;;;;5006221;28;20224;-64
2022/10/21 11:26:47;;;;;;;10.48;5.45;;;;;;;;;;5007159;28;20211;-64
2022/10/21 11:29:32;;;;;;;9.65;5.30;;;;;;;;;;5005442;28;20220;-63
2022/10/21 11:31:57;;;;;;;10.35;5.70;;;;;;;;;;5006477;28;20562;-64
2022/10/21 11:34:25;;;;;;;11.63;6.07;;;;;;;;;;5008277;28;20289;-64
2022/10/21 11:36:52;;;;;;;11.02;5.53;;;;;;;;;;5010184;28;20220;-64
2022/10/21 11:39:29;;;;;;;8.05;5.13;;;;;;;;;;5009952;28;20231;-64
2022/10/21 11:41:56;;;;;;;12.52;5.78;;;;;;;;;;5009202;28;20212;-64
2022/10/21 11:44:32;;;;;;;9.13;5.82;;;;;;;;;;5010654;28;20286;-65
2022/10/21 11:47:01;;;;;;;10.23;5.72;;;;;;;;;;5008768;28;20811;-65
2022/10/21 11:49:30;;;;;;;9.10;5.75;;;;;;;;;;5009129;28;20212;-64
2022/10/21 11:51:56;;;;;;;12.70;6.10;;;;;;;;;;5009416;28;20229;-65
2022/10/21 11:54:26;;;;;;;11.30;6.88;;;;;;;;;;5009361;28;20300;-64
2022/10/21 11:56:54;;;;;;;11.07;6.20;;;;;;;;;;5008666;28;20343;-64
2022/10/21 11:59:25;;;;;;;11.45;6.28;;;;;;;;;;5008032;28;20252;-64
2022/10/21 12:01:54;;;;;;;11.77;6.55;;;;;;;;;;5009219;28;20452;-64
2022/10/21 12:04:23;;;;;;;10.00;5.60;;;;;;;;;;5009655;28;20605;-64
2022/10/21 12:06:48;;;;;;;11.98;6.75;;;;;;;;;;5008292;28;20232;-65
2022/10/21 12:09:16;;;;;;;9.60;6.35;;;;;;;;;;5008737;28;20290;-66
2022/10/21 12:11:42;;;;;;;11.40;5.93;;;;;;;;;;5008349;28;20204;-65
2022/10/21 12:14:19;;;;;;;9.50;5.68;;;;;;;;;;5022637;28;20581;-65
2022/10/21 12:16:44;;;;;;;11.63;5.72;;;;;;;;;;5004098;28;20726;-65
2022/10/21 12:19:10;;;;;;;12.05;5.30;;;;;;;;;;5008071;28;20259;-65
2022/10/21 12:21:36;;;;;;;11.43;5.82;;;;;;;;;;5007909;28;20250;-65
2022/10/21 12:24:10;;;;;;;9.07;5.40;;;;;;;;;;5009850;28;20236;-65
2022/10/21 12:26:36;;;;;;;11.57;5.65;;;;;;;;;;5009456;28;20679;-65
2022/10/21 12:29:07;;;;;;;10.60;5.35;;;;;;;;;;5007457;28;20212;-65
2022/10/21 12:31:38;;;;;;;8.88;5.07;;;;;;;;;;5008392;28;20220;-65
2022/10/21 12:34:04;;;;;;;11.95;5.50;;;;;;;;;;5007763;28;20204;-65
2022/10/21 12:36:37;;;;;;;10.57;5.00;;;;;;;;;;5006347;28;20277;-64
2022/10/21 12:39:02;;;;;;;9.02;4.63;;;;;;;;;;5020761;28;20735;-65
2022/10/21 12:41:27;;;;;;;7.63;4.82;;;;;;;;;;5007179;28;20255;-65
2022/10/21 12:44:00;;;;;;;7.93;5.03;;;;;;;;;;5009423;28;20304;-65
2022/10/21 12:46:26;;;;;;;9.77;4.63;;;;;;;;;;5008156;28;20212;-64
2022/10/21 12:48:52;;;;;;;10.50;5.07;;;;;;;;;;5007881;28;20223;-63
2022/10/21 12:51:18;;;;;;;9.02;4.63;;;;;;;;;;5007707;28;20668;-64
2022/10/21 12:53:48;;;;;;;12.40;4.60;;;;;;;;;;5008158;28;20215;-64
2022/10/21 12:56:23;;;;;;;10.48;4.60;;;;;;;;;;5006452;28;20282;-64
2022/10/21 12:58:48;;;;;;;11.90;4.60;;;;;;;;;;5009347;28;20270;-64
2022/10/21 13:01:32;;;;;;;8.18;4.20;;;;;;;;;;5009819;28;20635;-64
2022/10/21 13:03:58;;;;;;;8.48;3.83;;;;;;;;;;5007618;28;20220;-64
2022/10/21 13:06:44;;;;;;;6.07;3.55;;;;;;;;;;5008641;28;20278;-64
2022/10/21 13:09:28;;;;;;;7.18;3.58;;;;;;;;;;5008826;28;20217;-65
2022/10/21 13:12:01;;;;;;;8.60;3.60;;;;;;;;;;5007870;28;20224;-63
2022/10/21 13:14:28;;;;;;;8.40;3.58;;;;;;;;;;5007204;28;20201;-64
2022/10/21 13:16:55;;;;;;;9.85;4.10;;;;;;;;;;5007071;28;20213;-63
2022/10/21 13:19:31;;;;;;;8.70;3.95;;;;;;;;;;5006954;28;20228;-64
2022/10/21 13:22:00;;;;;;;7.00;4.00;;;;;;;;;;5010000;28;20212;-66
2022/10/21 13:24:25;;;;;;;7.32;3.65;;;;;;;;;;5007794;28;20316;-65
2022/10/21 13:26:52;;;;;;;8.35;4.13;;;;;;;;;;5009220;28;20296;-65
2022/10/21 13:29:19;;;;;;;8.35;3.72;;;;;;;;;;5008194;28;20278;-65
2022/10/21 13:31:45;;;;;;;9.35;3.70;;;;;;;;;;5006995;28;20291;-65
2022/10/21 13:34:23;;;;;;;8.30;4.10;;;;;;;;;;5008781;28;20303;-65
2022/10/21 13:36:49;;;;;;;6.82;3.33;;;;;;;;;;5007740;28;20204;-70
2022/10/21 13:39:21;;;;;;;6.65;3.60;;;;;;;;;;5008108;28;20310;-64
2022/10/21 13:41:46;;;;;;;8.25;3.92;;;;;;;;;;5009502;28;20205;-65
2022/10/21 13:44:21;;;;;;;7.82;3.78;;;;;;;;;;5007532;28;20216;-65
2022/10/21 13:46:47;;;;;;;6.60;3.35;;;;;;;;;;5007165;28;20274;-65
2022/10/21 13:49:25;;;;;;;6.53;3.28;;;;;;;;;;5008693;28;20623;-68
2022/10/21 13:51:50;;;;;;;6.90;3.05;;;;;;;;;;5008250;28;20219;-64
2022/10/21 13:54:15;;;;;;;6.53;3.25;;;;;;;;;;5007617;28;20228;-64
2022/10/21 13:56:41;;;;;;;7.25;3.40;;;;;;;;;;5007723;28;20553;-64
2022/10/21 13:59:07;;;;;;;6.60;3.17;;;;;;;;;;5006970;28;20217;-64
2022/10/21 14:01:45;;;;;;;5.85;3.20;;;;;;;;;;5006790;28;20251;-64
2022/10/21 14:04:12;;;;;;;6.07;3.00;;;;;;;;;;5007417;28;20623;-64
2022/10/21 14:06:39;;;;;;;7.20;3.28;;;;;;;;;;5009423;28;20208;-64
2022/10/21 14:09:06;;;;;;;5.38;3.10;;;;;;;;;;5017306;28;20212;-64
2022/10/21 14:11:32;;;;;;;7.65;3.42;;;;;;;;;;5027718;28;20207;-64
2022/10/21 14:14:00;;;;;;;5.47;3.20;;;;;;;;;;5027216;28;20219;-64
2022/10/21 14:16:31;;;;;;;6.80;3.08;;;;;;;;;;5008224;28;20317;-63
2022/10/21 14:18:56;;;;;;;5.32;3.30;;;;;;;;;;5006422;28;20762;-64
2022/10/21 14:21:23;;;;;;;8.13;3.63;;;;;;;;;;5005250;28;20239;-64
2022/10/21 14:23:48;;;;;;;7.25;3.63;;;;;;;;;;5007581;28;20296;-63